sensor_id;sensor_type;location;lat;lon;timestamp;P1;durP1;ratioP1;P2;durP2;ratioP2
22332;SDS011;11334;36.986;-121.936;2023-08-31T00:00:43;30.80;;;20.20;;
22332;SDS011;11334;36.986;-121.936;2023-08-31T00:03:10;31.70;;;19.95;;
22332;SDS011;11334;36.986;-121.936;2023-08-31T00:05:37;30.00;;;19.90;;
22332;SDS011;11334;36.986;-121.936;2023-08-31T00:08:07;32.13;;;21.05;;
22332;SDS011;11334;36.986;-121.936;2023-08-31T00:10:34;33.25;;;19.85;;
22332;SDS011;11334;36.986;-121.936;2023-08-31T00:13:04;31.88;;;19.30;;
22332;SDS011;11334;36.986;-121.936;2023-08-31T00:15:34;31.90;;;21.70;;
22332;SDS011;11334;36.986;-121.936;2023-08-31T00:18:01;30.65;;;20.60;;
22332;SDS011;11334;36.986;-121.936;2023-08-31T00:20:31;33.45;;;20.98;;
22332;SDS011;11334;36.986;-121.936;2023-08-31T00:23:01;29.63;;;21.05;;
22332;SDS011;11334;36.986;-121.936;2023-08-31T00:25:27;26.13;;;20.10;;
22332;SDS011;11334;36.986;-121.936;2023-08-31T00:27:53;30.23;;;20.25;;
22332;SDS011;11334;36.986;-121.936;2023-08-31T00:30:20;29.95;;;20.92;;
22332;SDS011;11334;36.986;-121.936;2023-08-31T00:32:46;26.67;;;20.67;;
22332;SDS011;11334;36.986;-121.936;2023-08-31T00:35:12;31.33;;;20.95;;
22332;SDS011;11334;36.986;-121.936;2023-08-31T00:37:39;27.55;;;21.45;;
22332;SDS011;11334;36.986;-121.936;2023-08-31T00:40:05;31.83;;;22.00;;
22332;SDS011;11334;36.986;-121.936;2023-08-31T00:42:34;36.75;;;23.50;;
22332;SDS011;11334;36.986;-121.936;2023-08-31T00:45:00;32.15;;;23.13;;
22332;SDS011;11334;36.986;-121.936;2023-08-31T00:47:27;34.53;;;24.33;;
22332;SDS011;11334;36.986;-121.936;2023-08-31T00:49:54;35.28;;;24.63;;
22332;SDS011;11334;36.986;-121.936;2023-08-31T00:52:20;34.80;;;24.90;;
22332;SDS011;11334;36.986;-121.936;2023-08-31T00:54:48;34.10;;;25.20;;
22332;SDS011;11334;36.986;-121.936;2023-08-31T00:57:18;30.95;;;24.42;;
22332;SDS011;11334;36.986;-121.936;2023-08-31T00:59:45;32.47;;;25.10;;
22332;SDS011;11334;36.986;-121.936;2023-08-31T01:02:13;31.85;;;26.75;;
22332;SDS011;11334;36.986;-121.936;2023-08-31T01:04:56;34.40;;;27.27;;
22332;SDS011;11334;36.986;-121.936;2023-08-31T01:13:07;32.20;;;27.10;;
22332;SDS011;11334;36.986;-121.936;2023-08-31T01:15:39;34.42;;;27.45;;
22332;SDS011;11334;36.986;-121.936;2023-08-31T01:18:10;36.78;;;27.90;;
22332;SDS011;11334;36.986;-121.936;2023-08-31T01:20:42;32.10;;;26.42;;
22332;SDS011;11334;36.986;-121.936;2023-08-31T01:23:19;31.60;;;25.83;;
22332;SDS011;11334;36.986;-121.936;2023-08-31T01:25:46;34.13;;;27.00;;
22332;SDS011;11334;36.986;-121.936;2023-08-31T01:28:13;33.60;;;25.40;;
22332;SDS011;11334;36.986;-121.936;2023-08-31T01:30:40;35.05;;;27.42;;
22332;SDS011;11334;36.986;-121.936;2023-08-31T01:33:10;35.17;;;26.35;;
22332;SDS011;11334;36.986;-121.936;2023-08-31T01:35:42;35.80;;;25.98;;
22332;SDS011;11334;36.986;-121.936;2023-08-31T01:38:12;39.10;;;27.23;;
22332;SDS011;11334;36.986;-121.936;2023-08-31T01:40:48;37.45;;;26.52;;
22332;SDS011;11334;36.986;-121.936;2023-08-31T01:43:45;36.83;;;26.23;;
22332;SDS011;11334;36.986;-121.936;2023-08-31T01:46:13;37.35;;;27.35;;
22332;SDS011;11334;36.986;-121.936;2023-08-31T01:48:40;39.13;;;26.83;;
22332;SDS011;11334;36.986;-121.936;2023-08-31T01:51:10;41.08;;;26.35;;
22332;SDS011;11334;36.986;-121.936;2023-08-31T01:53:36;37.90;;;26.40;;
22332;SDS011;11334;36.986;-121.936;2023-08-31T01:56:02;39.22;;;26.63;;
22332;SDS011;11334;36.986;-121.936;2023-08-31T01:58:30;46.38;;;29.17;;
22332;SDS011;11334;36.986;-121.936;2023-08-31T02:00:56;44.25;;;27.67;;
22332;SDS011;11334;36.986;-121.936;2023-08-31T02:03:22;44.15;;;27.75;;
22332;SDS011;11334;36.986;-121.936;2023-08-31T02:05:49;39.08;;;26.90;;
22332;SDS011;11334;36.986;-121.936;2023-08-31T02:08:15;40.00;;;27.55;;
22332;SDS011;11334;36.986;-121.936;2023-08-31T02:10:43;44.63;;;28.25;;
22332;SDS011;11334;36.986;-121.936;2023-08-31T02:13:13;46.03;;;27.95;;
22332;SDS011;11334;36.986;-121.936;2023-08-31T02:15:41;46.83;;;28.33;;
22332;SDS011;11334;36.986;-121.936;2023-08-31T02:18:08;40.75;;;27.88;;
22332;SDS011;11334;36.986;-121.936;2023-08-31T02:20:34;43.60;;;27.33;;
22332;SDS011;11334;36.986;-121.936;2023-08-31T02:23:00;41.35;;;27.80;;
22332;SDS011;11334;36.986;-121.936;2023-08-31T02:25:26;46.42;;;27.52;;
22332;SDS011;11334;36.986;-121.936;2023-08-31T02:27:54;43.58;;;27.55;;
22332;SDS011;11334;36.986;-121.936;2023-08-31T02:30:21;39.50;;;26.95;;
22332;SDS011;11334;36.986;-121.936;2023-08-31T02:32:48;46.85;;;28.95;;
22332;SDS011;11334;36.986;-121.936;2023-08-31T02:35:14;52.80;;;29.65;;
22332;SDS011;11334;36.986;-121.936;2023-08-31T02:37:40;44.38;;;27.50;;
22332;SDS011;11334;36.986;-121.936;2023-08-31T02:40:07;50.20;;;28.00;;
22332;SDS011;11334;36.986;-121.936;2023-08-31T02:42:33;44.08;;;28.33;;
22332;SDS011;11334;36.986;-121.936;2023-08-31T02:45:00;44.80;;;27.55;;
22332;SDS011;11334;36.986;-121.936;2023-08-31T02:47:29;46.83;;;27.00;;
22332;SDS011;11334;36.986;-121.936;2023-08-31T02:49:55;47.50;;;29.63;;
22332;SDS011;11334;36.986;-121.936;2023-08-31T02:52:21;42.13;;;26.85;;
22332;SDS011;11334;36.986;-121.936;2023-08-31T02:54:48;51.20;;;27.58;;
22332;SDS011;11334;36.986;-121.936;2023-08-31T02:57:14;47.75;;;28.75;;
22332;SDS011;11334;36.986;-121.936;2023-08-31T02:59:44;53.03;;;27.92;;
22332;SDS011;11334;36.986;-121.936;2023-08-31T03:02:11;43.85;;;27.48;;
22332;SDS011;11334;36.986;-121.936;2023-08-31T03:04:38;43.90;;;28.35;;
22332;SDS011;11334;36.986;-121.936;2023-08-31T03:07:05;45.72;;;28.05;;
22332;SDS011;11334;36.986;-121.936;2023-08-31T03:09:31;45.40;;;28.42;;
22332;SDS011;11334;36.986;-121.936;2023-08-31T03:11:57;46.33;;;28.90;;
22332;SDS011;11334;36.986;-121.936;2023-08-31T03:14:23;49.22;;;30.02;;
22332;SDS011;11334;36.986;-121.936;2023-08-31T03:16:49;55.25;;;29.90;;
22332;SDS011;11334;36.986;-121.936;2023-08-31T03:19:16;46.50;;;28.38;;
22332;SDS011;11334;36.986;-121.936;2023-08-31T03:21:42;47.22;;;28.77;;
22332;SDS011;11334;36.986;-121.936;2023-08-31T03:24:08;51.25;;;28.27;;
22332;SDS011;11334;36.986;-121.936;2023-08-31T03:26:34;48.03;;;28.42;;
22332;SDS011;11334;36.986;-121.936;2023-08-31T03:29:01;48.70;;;28.10;;
22332;SDS011;11334;36.986;-121.936;2023-08-31T03:31:29;46.05;;;26.73;;
22332;SDS011;11334;36.986;-121.936;2023-08-31T03:33:56;45.38;;;27.02;;
22332;SDS011;11334;36.986;-121.936;2023-08-31T03:36:22;44.72;;;25.23;;
22332;SDS011;11334;36.986;-121.936;2023-08-31T03:38:49;46.47;;;26.88;;
22332;SDS011;11334;36.986;-121.936;2023-08-31T03:41:15;45.38;;;27.80;;
22332;SDS011;11334;36.986;-121.936;2023-08-31T03:43:41;48.05;;;28.92;;
22332;SDS011;11334;36.986;-121.936;2023-08-31T03:46:08;47.90;;;27.80;;
22332;SDS011;11334;36.986;-121.936;2023-08-31T03:48:34;52.30;;;28.20;;
22332;SDS011;11334;36.986;-121.936;2023-08-31T03:51:00;45.50;;;26.75;;
22332;SDS011;11334;36.986;-121.936;2023-08-31T03:53:26;49.35;;;28.38;;
22332;SDS011;11334;36.986;-121.936;2023-08-31T03:55:53;48.58;;;27.30;;
22332;SDS011;11334;36.986;-121.936;2023-08-31T03:58:19;48.45;;;27.35;;
22332;SDS011;11334;36.986;-121.936;2023-08-31T04:00:48;51.83;;;29.17;;
22332;SDS011;11334;36.986;-121.936;2023-08-31T04:03:15;52.63;;;28.13;;
22332;SDS011;11334;36.986;-121.936;2023-08-31T04:05:41;52.80;;;28.25;;
22332;SDS011;11334;36.986;-121.936;2023-08-31T04:08:08;50.97;;;29.50;;
22332;SDS011;11334;36.986;-121.936;2023-08-31T04:10:34;49.25;;;28.48;;
22332;SDS011;11334;36.986;-121.936;2023-08-31T04:13:00;52.42;;;29.33;;
22332;SDS011;11334;36.986;-121.936;2023-08-31T04:15:26;56.55;;;29.10;;
22332;SDS011;11334;36.986;-121.936;2023-08-31T04:17:53;57.92;;;28.98;;
22332;SDS011;11334;36.986;-121.936;2023-08-31T04:20:19;53.38;;;29.02;;
22332;SDS011;11334;36.986;-121.936;2023-08-31T04:22:45;48.33;;;28.60;;
22332;SDS011;11334;36.986;-121.936;2023-08-31T04:25:11;48.80;;;27.25;;
22332;SDS011;11334;36.986;-121.936;2023-08-31T04:27:37;48.85;;;27.98;;
22332;SDS011;11334;36.986;-121.936;2023-08-31T04:30:06;48.47;;;27.65;;
22332;SDS011;11334;36.986;-121.936;2023-08-31T04:32:33;54.63;;;33.53;;
22332;SDS011;11334;36.986;-121.936;2023-08-31T04:35:01;45.25;;;26.50;;
22332;SDS011;11334;36.986;-121.936;2023-08-31T04:37:28;44.00;;;26.70;;
22332;SDS011;11334;36.986;-121.936;2023-08-31T04:39:54;44.33;;;27.42;;
22332;SDS011;11334;36.986;-121.936;2023-08-31T04:42:20;38.97;;;27.33;;
22332;SDS011;11334;36.986;-121.936;2023-08-31T04:44:47;49.75;;;27.80;;
22332;SDS011;11334;36.986;-121.936;2023-08-31T04:47:13;43.72;;;25.23;;
22332;SDS011;11334;36.986;-121.936;2023-08-31T04:49:39;49.35;;;27.90;;
22332;SDS011;11334;36.986;-121.936;2023-08-31T04:52:05;46.85;;;28.95;;
22332;SDS011;11334;36.986;-121.936;2023-08-31T04:54:32;49.83;;;28.10;;
22332;SDS011;11334;36.986;-121.936;2023-08-31T04:56:58;48.78;;;27.17;;
22332;SDS011;11334;36.986;-121.936;2023-08-31T04:59:24;46.20;;;27.50;;
22332;SDS011;11334;36.986;-121.936;2023-08-31T05:01:50;44.05;;;26.40;;
22332;SDS011;11334;36.986;-121.936;2023-08-31T05:04:16;48.35;;;28.52;;
22332;SDS011;11334;36.986;-121.936;2023-08-31T05:06:43;43.95;;;26.30;;
22332;SDS011;11334;36.986;-121.936;2023-08-31T05:09:09;43.97;;;26.42;;
22332;SDS011;11334;36.986;-121.936;2023-08-31T05:11:35;44.90;;;26.45;;
22332;SDS011;11334;36.986;-121.936;2023-08-31T05:14:01;44.38;;;27.70;;
22332;SDS011;11334;36.986;-121.936;2023-08-31T05:16:28;45.53;;;27.45;;
22332;SDS011;11334;36.986;-121.936;2023-08-31T05:18:54;54.17;;;25.83;;
22332;SDS011;11334;36.986;-121.936;2023-08-31T05:21:20;49.60;;;27.80;;
22332;SDS011;11334;36.986;-121.936;2023-08-31T05:23:46;42.80;;;25.77;;
22332;SDS011;11334;36.986;-121.936;2023-08-31T05:26:12;46.15;;;26.83;;
22332;SDS011;11334;36.986;-121.936;2023-08-31T05:28:40;42.40;;;26.90;;
22332;SDS011;11334;36.986;-121.936;2023-08-31T05:31:06;46.63;;;27.55;;
22332;SDS011;11334;36.986;-121.936;2023-08-31T05:33:32;46.72;;;27.23;;
22332;SDS011;11334;36.986;-121.936;2023-08-31T05:36:02;39.35;;;25.65;;
22332;SDS011;11334;36.986;-121.936;2023-08-31T05:38:31;42.42;;;26.30;;
22332;SDS011;11334;36.986;-121.936;2023-08-31T05:41:04;41.35;;;26.27;;
22332;SDS011;11334;36.986;-121.936;2023-08-31T05:43:35;42.33;;;26.50;;
22332;SDS011;11334;36.986;-121.936;2023-08-31T05:46:02;43.15;;;26.17;;
22332;SDS011;11334;36.986;-121.936;2023-08-31T05:48:28;41.47;;;25.52;;
22332;SDS011;11334;36.986;-121.936;2023-08-31T05:50:56;48.70;;;27.27;;
22332;SDS011;11334;36.986;-121.936;2023-08-31T05:53:22;44.95;;;27.38;;
22332;SDS011;11334;36.986;-121.936;2023-08-31T05:55:49;42.95;;;26.00;;
22332;SDS011;11334;36.986;-121.936;2023-08-31T05:58:15;41.50;;;25.88;;
22332;SDS011;11334;36.986;-121.936;2023-08-31T06:00:41;42.45;;;26.65;;
22332;SDS011;11334;36.986;-121.936;2023-08-31T06:03:07;39.13;;;24.98;;
22332;SDS011;11334;36.986;-121.936;2023-08-31T06:05:35;42.60;;;24.90;;
22332;SDS011;11334;36.986;-121.936;2023-08-31T06:08:01;39.92;;;26.15;;
22332;SDS011;11334;36.986;-121.936;2023-08-31T06:10:28;44.47;;;26.30;;
22332;SDS011;11334;36.986;-121.936;2023-08-31T06:12:54;41.42;;;25.00;;
22332;SDS011;11334;36.986;-121.936;2023-08-31T06:15:20;38.17;;;25.63;;
22332;SDS011;11334;36.986;-121.936;2023-08-31T06:17:46;42.00;;;25.58;;
22332;SDS011;11334;36.986;-121.936;2023-08-31T06:20:13;41.30;;;25.13;;
22332;SDS011;11334;36.986;-121.936;2023-08-31T06:22:39;40.53;;;27.38;;
22332;SDS011;11334;36.986;-121.936;2023-08-31T06:25:08;39.45;;;27.27;;
22332;SDS011;11334;36.986;-121.936;2023-08-31T06:27:36;42.53;;;25.05;;
22332;SDS011;11334;36.986;-121.936;2023-08-31T06:30:02;39.67;;;25.90;;
22332;SDS011;11334;36.986;-121.936;2023-08-31T06:32:29;41.47;;;26.10;;
22332;SDS011;11334;36.986;-121.936;2023-08-31T06:34:55;36.33;;;26.38;;
22332;SDS011;11334;36.986;-121.936;2023-08-31T06:37:22;39.80;;;25.70;;
22332;SDS011;11334;36.986;-121.936;2023-08-31T06:39:48;40.42;;;26.77;;
22332;SDS011;11334;36.986;-121.936;2023-08-31T06:42:14;38.95;;;27.10;;
22332;SDS011;11334;36.986;-121.936;2023-08-31T06:44:40;37.63;;;25.92;;
22332;SDS011;11334;36.986;-121.936;2023-08-31T06:47:06;39.80;;;26.90;;
22332;SDS011;11334;36.986;-121.936;2023-08-31T06:49:33;37.38;;;26.38;;
22332;SDS011;11334;36.986;-121.936;2023-08-31T06:52:00;39.88;;;25.63;;
22332;SDS011;11334;36.986;-121.936;2023-08-31T06:54:33;41.90;;;27.02;;
22332;SDS011;11334;36.986;-121.936;2023-08-31T06:56:59;38.38;;;27.48;;
22332;SDS011;11334;36.986;-121.936;2023-08-31T06:59:25;41.20;;;27.77;;
22332;SDS011;11334;36.986;-121.936;2023-08-31T07:01:52;38.70;;;26.73;;
22332;SDS011;11334;36.986;-121.936;2023-08-31T07:04:18;39.50;;;28.38;;
22332;SDS011;11334;36.986;-121.936;2023-08-31T07:06:44;47.30;;;29.48;;
22332;SDS011;11334;36.986;-121.936;2023-08-31T07:09:10;44.03;;;28.35;;
22332;SDS011;11334;36.986;-121.936;2023-08-31T07:11:37;40.45;;;27.90;;
22332;SDS011;11334;36.986;-121.936;2023-08-31T07:14:03;38.28;;;29.02;;
22332;SDS011;11334;36.986;-121.936;2023-08-31T07:16:29;38.53;;;27.75;;
22332;SDS011;11334;36.986;-121.936;2023-08-31T07:18:55;37.00;;;26.98;;
22332;SDS011;11334;36.986;-121.936;2023-08-31T07:21:22;39.60;;;28.50;;
22332;SDS011;11334;36.986;-121.936;2023-08-31T07:23:48;43.33;;;28.15;;
22332;SDS011;11334;36.986;-121.936;2023-08-31T07:26:14;40.55;;;28.13;;
22332;SDS011;11334;36.986;-121.936;2023-08-31T07:28:41;41.85;;;28.67;;
22332;SDS011;11334;36.986;-121.936;2023-08-31T07:31:07;39.17;;;27.35;;
22332;SDS011;11334;36.986;-121.936;2023-08-31T07:33:34;40.70;;;28.83;;
22332;SDS011;11334;36.986;-121.936;2023-08-31T07:36:00;37.38;;;27.60;;
22332;SDS011;11334;36.986;-121.936;2023-08-31T07:38:29;39.65;;;29.20;;
22332;SDS011;11334;36.986;-121.936;2023-08-31T07:40:56;39.10;;;28.73;;
22332;SDS011;11334;36.986;-121.936;2023-08-31T07:43:22;41.10;;;29.00;;
22332;SDS011;11334;36.986;-121.936;2023-08-31T07:45:49;44.90;;;28.38;;
22332;SDS011;11334;36.986;-121.936;2023-08-31T07:48:15;35.47;;;28.38;;
22332;SDS011;11334;36.986;-121.936;2023-08-31T07:50:42;41.42;;;29.83;;
22332;SDS011;11334;36.986;-121.936;2023-08-31T07:53:08;35.95;;;27.42;;
22332;SDS011;11334;36.986;-121.936;2023-08-31T07:55:35;39.08;;;28.55;;
22332;SDS011;11334;36.986;-121.936;2023-08-31T07:58:01;38.67;;;28.42;;
22332;SDS011;11334;36.986;-121.936;2023-08-31T08:00:27;36.60;;;28.02;;
22332;SDS011;11334;36.986;-121.936;2023-08-31T08:02:53;47.22;;;29.40;;
22332;SDS011;11334;36.986;-121.936;2023-08-31T08:05:19;39.67;;;28.95;;
22332;SDS011;11334;36.986;-121.936;2023-08-31T08:07:46;40.90;;;27.73;;
22332;SDS011;11334;36.986;-121.936;2023-08-31T08:10:12;38.67;;;27.95;;
22332;SDS011;11334;36.986;-121.936;2023-08-31T08:12:40;37.25;;;28.70;;
22332;SDS011;11334;36.986;-121.936;2023-08-31T08:15:10;40.50;;;29.63;;
22332;SDS011;11334;36.986;-121.936;2023-08-31T08:17:37;42.55;;;28.77;;
22332;SDS011;11334;36.986;-121.936;2023-08-31T08:20:04;37.25;;;27.88;;
22332;SDS011;11334;36.986;-121.936;2023-08-31T08:22:32;39.97;;;29.63;;
22332;SDS011;11334;36.986;-121.936;2023-08-31T08:24:58;40.85;;;30.65;;
22332;SDS011;11334;36.986;-121.936;2023-08-31T08:27:25;42.58;;;30.10;;
22332;SDS011;11334;36.986;-121.936;2023-08-31T08:29:52;38.15;;;29.15;;
22332;SDS011;11334;36.986;-121.936;2023-08-31T08:32:18;37.95;;;29.35;;
22332;SDS011;11334;36.986;-121.936;2023-08-31T08:34:45;41.30;;;29.52;;
22332;SDS011;11334;36.986;-121.936;2023-08-31T08:37:11;40.35;;;28.52;;
22332;SDS011;11334;36.986;-121.936;2023-08-31T08:39:37;44.53;;;30.38;;
22332;SDS011;11334;36.986;-121.936;2023-08-31T08:42:04;41.65;;;29.00;;
22332;SDS011;11334;36.986;-121.936;2023-08-31T08:44:32;43.92;;;29.75;;
22332;SDS011;11334;36.986;-121.936;2023-08-31T08:47:00;35.45;;;28.88;;
22332;SDS011;11334;36.986;-121.936;2023-08-31T08:49:27;41.33;;;29.25;;
22332;SDS011;11334;36.986;-121.936;2023-08-31T08:51:56;39.72;;;29.65;;
22332;SDS011;11334;36.986;-121.936;2023-08-31T08:54:22;41.63;;;29.95;;
22332;SDS011;11334;36.986;-121.936;2023-08-31T08:56:49;37.28;;;28.27;;
22332;SDS011;11334;36.986;-121.936;2023-08-31T08:59:15;39.13;;;28.65;;
22332;SDS011;11334;36.986;-121.936;2023-08-31T09:01:41;39.47;;;29.02;;
22332;SDS011;11334;36.986;-121.936;2023-08-31T09:04:09;41.42;;;29.00;;
22332;SDS011;11334;36.986;-121.936;2023-08-31T09:06:35;38.28;;;28.23;;
22332;SDS011;11334;36.986;-121.936;2023-08-31T09:09:02;40.17;;;28.05;;
22332;SDS011;11334;36.986;-121.936;2023-08-31T09:11:29;40.13;;;29.77;;
22332;SDS011;11334;36.986;-121.936;2023-08-31T09:13:56;43.38;;;28.65;;
22332;SDS011;11334;36.986;-121.936;2023-08-31T09:16:24;39.03;;;28.70;;
22332;SDS011;11334;36.986;-121.936;2023-08-31T09:18:51;37.08;;;28.42;;
22332;SDS011;11334;36.986;-121.936;2023-08-31T09:21:17;40.53;;;29.55;;
22332;SDS011;11334;36.986;-121.936;2023-08-31T09:24:05;36.90;;;26.30;;
22332;SDS011;11334;36.986;-121.936;2023-08-31T09:26:39;39.17;;;27.10;;
22332;SDS011;11334;36.986;-121.936;2023-08-31T09:29:06;39.53;;;26.88;;
22332;SDS011;11334;36.986;-121.936;2023-08-31T09:31:33;40.47;;;27.83;;
22332;SDS011;11334;36.986;-121.936;2023-08-31T09:33:59;43.60;;;26.65;;
22332;SDS011;11334;36.986;-121.936;2023-08-31T09:36:26;35.65;;;26.80;;
22332;SDS011;11334;36.986;-121.936;2023-08-31T09:38:56;38.00;;;26.30;;
22332;SDS011;11334;36.986;-121.936;2023-08-31T09:41:24;40.85;;;26.50;;
22332;SDS011;11334;36.986;-121.936;2023-08-31T09:43:50;42.65;;;26.48;;
22332;SDS011;11334;36.986;-121.936;2023-08-31T09:46:16;42.90;;;26.08;;
22332;SDS011;11334;36.986;-121.936;2023-08-31T09:48:43;38.65;;;27.98;;
22332;SDS011;11334;36.986;-121.936;2023-08-31T09:51:10;40.38;;;26.17;;
22332;SDS011;11334;36.986;-121.936;2023-08-31T09:53:37;44.15;;;25.52;;
22332;SDS011;11334;36.986;-121.936;2023-08-31T09:56:05;38.42;;;24.88;;
22332;SDS011;11334;36.986;-121.936;2023-08-31T09:58:32;41.88;;;26.52;;
22332;SDS011;11334;36.986;-121.936;2023-08-31T10:00:59;40.40;;;23.33;;
22332;SDS011;11334;36.986;-121.936;2023-08-31T10:03:25;43.22;;;23.92;;
22332;SDS011;11334;36.986;-121.936;2023-08-31T10:05:52;36.35;;;22.75;;
22332;SDS011;11334;36.986;-121.936;2023-08-31T10:08:21;38.15;;;24.45;;
22332;SDS011;11334;36.986;-121.936;2023-08-31T10:10:49;42.38;;;23.73;;
22332;SDS011;11334;36.986;-121.936;2023-08-31T10:13:15;37.88;;;22.98;;
22332;SDS011;11334;36.986;-121.936;2023-08-31T10:15:44;36.30;;;21.42;;
22332;SDS011;11334;36.986;-121.936;2023-08-31T10:18:12;36.63;;;20.20;;
22332;SDS011;11334;36.986;-121.936;2023-08-31T10:20:39;42.53;;;20.40;;
22332;SDS011;11334;36.986;-121.936;2023-08-31T10:23:11;36.65;;;21.15;;
22332;SDS011;11334;36.986;-121.936;2023-08-31T10:28:20;35.35;;;20.88;;
22332;SDS011;11334;36.986;-121.936;2023-08-31T10:31:02;39.75;;;20.25;;
22332;SDS011;11334;36.986;-121.936;2023-08-31T10:33:32;39.08;;;19.67;;
22332;SDS011;11334;36.986;-121.936;2023-08-31T10:36:18;30.08;;;18.75;;
22332;SDS011;11334;36.986;-121.936;2023-08-31T10:38:46;35.03;;;19.48;;
22332;SDS011;11334;36.986;-121.936;2023-08-31T10:46:32;33.55;;;19.42;;
22332;SDS011;11334;36.986;-121.936;2023-08-31T10:51:40;35.88;;;20.13;;
22332;SDS011;11334;36.986;-121.936;2023-08-31T10:54:19;33.92;;;19.63;;
22332;SDS011;11334;36.986;-121.936;2023-08-31T10:59:19;38.97;;;19.92;;
22332;SDS011;11334;36.986;-121.936;2023-08-31T11:01:54;35.85;;;19.20;;
22332;SDS011;11334;36.986;-121.936;2023-08-31T11:04:26;34.17;;;18.83;;
22332;SDS011;11334;36.986;-121.936;2023-08-31T11:09:38;34.90;;;18.17;;
22332;SDS011;11334;36.986;-121.936;2023-08-31T11:12:05;35.55;;;19.10;;
22332;SDS011;11334;36.986;-121.936;2023-08-31T11:14:32;33.85;;;18.42;;
22332;SDS011;11334;36.986;-121.936;2023-08-31T11:16:59;36.67;;;18.58;;
22332;SDS011;11334;36.986;-121.936;2023-08-31T11:19:26;33.90;;;17.30;;
22332;SDS011;11334;36.986;-121.936;2023-08-31T11:21:56;37.33;;;17.77;;
22332;SDS011;11334;36.986;-121.936;2023-08-31T11:24:23;37.47;;;19.00;;
22332;SDS011;11334;36.986;-121.936;2023-08-31T11:26:53;36.70;;;18.25;;
22332;SDS011;11334;36.986;-121.936;2023-08-31T11:29:20;36.15;;;17.80;;
22332;SDS011;11334;36.986;-121.936;2023-08-31T11:31:47;35.38;;;19.10;;
22332;SDS011;11334;36.986;-121.936;2023-08-31T11:34:14;32.83;;;17.75;;
22332;SDS011;11334;36.986;-121.936;2023-08-31T11:36:42;30.60;;;17.75;;
22332;SDS011;11334;36.986;-121.936;2023-08-31T11:39:09;36.53;;;17.58;;
22332;SDS011;11334;36.986;-121.936;2023-08-31T11:41:36;29.60;;;17.73;;
22332;SDS011;11334;36.986;-121.936;2023-08-31T11:44:15;34.72;;;18.60;;
22332;SDS011;11334;36.986;-121.936;2023-08-31T11:46:43;34.80;;;17.88;;
22332;SDS011;11334;36.986;-121.936;2023-08-31T11:49:15;31.85;;;17.30;;
22332;SDS011;11334;36.986;-121.936;2023-08-31T11:51:43;40.13;;;19.23;;
22332;SDS011;11334;36.986;-121.936;2023-08-31T11:54:10;36.13;;;17.85;;
22332;SDS011;11334;36.986;-121.936;2023-08-31T11:56:43;36.50;;;17.98;;
22332;SDS011;11334;36.986;-121.936;2023-08-31T11:59:15;32.53;;;16.83;;
22332;SDS011;11334;36.986;-121.936;2023-08-31T12:01:42;36.00;;;18.02;;
22332;SDS011;11334;36.986;-121.936;2023-08-31T12:04:10;29.40;;;16.75;;
22332;SDS011;11334;36.986;-121.936;2023-08-31T12:06:40;32.60;;;18.00;;
22332;SDS011;11334;36.986;-121.936;2023-08-31T12:09:07;31.58;;;18.15;;
22332;SDS011;11334;36.986;-121.936;2023-08-31T12:11:34;35.40;;;18.15;;
22332;SDS011;11334;36.986;-121.936;2023-08-31T12:14:01;26.35;;;17.75;;
22332;SDS011;11334;36.986;-121.936;2023-08-31T12:16:35;32.70;;;16.98;;
22332;SDS011;11334;36.986;-121.936;2023-08-31T12:19:05;33.80;;;17.58;;
22332;SDS011;11334;36.986;-121.936;2023-08-31T12:21:31;30.17;;;17.02;;
22332;SDS011;11334;36.986;-121.936;2023-08-31T12:24:00;33.53;;;17.23;;
22332;SDS011;11334;36.986;-121.936;2023-08-31T12:26:28;31.15;;;17.58;;
22332;SDS011;11334;36.986;-121.936;2023-08-31T12:28:55;35.55;;;17.15;;
22332;SDS011;11334;36.986;-121.936;2023-08-31T12:31:24;34.97;;;17.92;;
22332;SDS011;11334;36.986;-121.936;2023-08-31T12:33:51;31.40;;;17.98;;
22332;SDS011;11334;36.986;-121.936;2023-08-31T12:36:17;26.52;;;17.40;;
22332;SDS011;11334;36.986;-121.936;2023-08-31T12:38:43;32.25;;;18.45;;
22332;SDS011;11334;36.986;-121.936;2023-08-31T12:41:09;36.97;;;18.63;;
22332;SDS011;11334;36.986;-121.936;2023-08-31T12:43:35;38.75;;;18.55;;
22332;SDS011;11334;36.986;-121.936;2023-08-31T12:46:02;37.72;;;19.30;;
22332;SDS011;11334;36.986;-121.936;2023-08-31T12:48:31;33.80;;;18.70;;
22332;SDS011;11334;36.986;-121.936;2023-08-31T12:50:58;30.58;;;17.33;;
22332;SDS011;11334;36.986;-121.936;2023-08-31T12:53:24;28.23;;;17.27;;
22332;SDS011;11334;36.986;-121.936;2023-08-31T12:55:51;32.25;;;17.20;;
22332;SDS011;11334;36.986;-121.936;2023-08-31T12:58:17;30.27;;;17.35;;
22332;SDS011;11334;36.986;-121.936;2023-08-31T13:00:43;37.38;;;19.48;;
22332;SDS011;11334;36.986;-121.936;2023-08-31T13:03:11;35.35;;;20.30;;
22332;SDS011;11334;36.986;-121.936;2023-08-31T13:05:39;32.75;;;19.00;;
22332;SDS011;11334;36.986;-121.936;2023-08-31T13:08:08;31.90;;;17.67;;
22332;SDS011;11334;36.986;-121.936;2023-08-31T13:10:35;35.83;;;17.92;;
22332;SDS011;11334;36.986;-121.936;2023-08-31T13:13:01;37.00;;;18.80;;
22332;SDS011;11334;36.986;-121.936;2023-08-31T13:15:27;34.10;;;18.13;;
22332;SDS011;11334;36.986;-121.936;2023-08-31T13:17:53;28.10;;;17.70;;
22332;SDS011;11334;36.986;-121.936;2023-08-31T13:20:19;26.83;;;17.40;;
22332;SDS011;11334;36.986;-121.936;2023-08-31T13:22:46;28.88;;;17.42;;
22332;SDS011;11334;36.986;-121.936;2023-08-31T13:25:12;31.17;;;17.92;;
22332;SDS011;11334;36.986;-121.936;2023-08-31T13:27:39;33.80;;;17.90;;
22332;SDS011;11334;36.986;-121.936;2023-08-31T13:30:05;31.83;;;18.75;;
22332;SDS011;11334;36.986;-121.936;2023-08-31T13:32:32;34.92;;;19.13;;
22332;SDS011;11334;36.986;-121.936;2023-08-31T13:34:59;39.47;;;18.95;;
22332;SDS011;11334;36.986;-121.936;2023-08-31T13:37:25;30.88;;;19.80;;
22332;SDS011;11334;36.986;-121.936;2023-08-31T13:39:52;36.83;;;19.73;;
22332;SDS011;11334;36.986;-121.936;2023-08-31T13:42:20;40.25;;;17.85;;
22332;SDS011;11334;36.986;-121.936;2023-08-31T13:44:46;39.33;;;19.60;;
22332;SDS011;11334;36.986;-121.936;2023-08-31T13:47:13;34.22;;;17.98;;
22332;SDS011;11334;36.986;-121.936;2023-08-31T13:49:39;30.63;;;18.35;;
22332;SDS011;11334;36.986;-121.936;2023-08-31T13:52:05;31.33;;;18.00;;
22332;SDS011;11334;36.986;-121.936;2023-08-31T13:54:33;36.58;;;19.40;;
22332;SDS011;11334;36.986;-121.936;2023-08-31T13:56:59;34.03;;;18.50;;
22332;SDS011;11334;36.986;-121.936;2023-08-31T13:59:26;36.17;;;18.50;;
22332;SDS011;11334;36.986;-121.936;2023-08-31T14:01:53;32.63;;;18.25;;
22332;SDS011;11334;36.986;-121.936;2023-08-31T14:04:19;28.52;;;17.80;;
22332;SDS011;11334;36.986;-121.936;2023-08-31T14:06:47;25.25;;;16.08;;